Etusivu
METAR-TAF:

METAR-TAF

Lentoasemat :

Røros, Norja

Leveyspiiri: 62-35N, Pituuspiiri: 011-21E, korkeus merenpinnasta: 626 m

Tämänhetkinen sää

Tämä raportti tehtiin 41 minuuttia sitten, kello 11.50 UTC
Tuuli 1 kn eri suunnista
Lämpötila 3°C
Kosteus 81%
Ilmanpaine 1018 hPa
Näkyvyys 10 km tai enemmän
Muutamia pilviä 4000 ft:n korkeudessa

METAR: ENRO 191150Z VRB01KT 9999 FEW040 03/00 Q1018

Aika: 14:31 (12:31 UTC)

Sääennuste

Tämä raportti tehtiin 1 tunti ja 31 minuuttia sitten, kello 11.00 UTC
Ennuste voimassa 19. päivästä klo 12 UTC - 19. päivään klo 18 UTC
Tuuli 5 kn kaakosta
Näkyvyys 10 km tai enemmän
ei pilviä alle 1500 m:ssä eikä cumulonimbus-pilviä

TAF: ENRO 191100Z 1912/1918 14005KT CAVOK

Säähavainnot ja -ennusteet yli 4000 lentoasemalta (METAR- ja TAF-raportit).

Käytössä olevat sääasemat on merkitty karttaan keltaisilla ja punaisilla pisteillä.

Aseta hiiri pisteen päälle nähdäksesi sääaseman nimen.

Klikkaa sitten nähdäksesi säähavainnot ja -ennusteet.

Kartan vaihtaminen: klikkaa mustalla rastilla varustettuja vihreitä pisteitä, niin voit zoomata sisään; viivalla varustettua vihreää pistettä, niin voit zoomata ulos tai vihreitä nuolia, niin pääset viereisille kartoille.


METAR-TAF: